createdAt,value
2017-08-16T00:01:48.078Z,18.40
2017-08-16T00:04:15.597Z,18.50
2017-08-16T00:06:43.149Z,18.50
2017-08-16T00:09:11.436Z,18.60
2017-08-16T00:11:38.951Z,18.60
2017-08-16T00:14:06.527Z,18.60
2017-08-16T00:16:34.046Z,18.50
2017-08-16T00:19:01.617Z,18.40
2017-08-16T00:21:29.148Z,18.40
2017-08-16T00:23:56.686Z,18.30
2017-08-16T00:26:24.205Z,18.30
2017-08-16T00:28:51.743Z,18.30
2017-08-16T00:31:19.262Z,18.20
2017-08-16T00:33:46.797Z,18.20
2017-08-16T00:36:15.086Z,18.20
2017-08-16T00:38:42.631Z,18.20
2017-08-16T00:41:10.923Z,18.30
2017-08-16T00:43:38.454Z,18.30
2017-08-16T00:46:06.766Z,18.40
2017-08-16T00:48:34.290Z,18.40
2017-08-16T00:51:01.823Z,18.50
2017-08-16T00:53:29.334Z,18.60
2017-08-16T00:55:56.875Z,18.60
2017-08-16T00:58:25.159Z,18.60
2017-08-16T01:00:53.466Z,18.60
2017-08-16T01:03:20.987Z,18.60
2017-08-16T01:05:49.294Z,18.50
2017-08-16T01:08:16.815Z,18.50
2017-08-16T01:10:44.330Z,18.50
2017-08-16T01:13:11.866Z,18.50
2017-08-16T01:15:39.389Z,18.40
2017-08-16T01:18:06.929Z,18.50
2017-08-16T01:20:34.450Z,18.50
2017-08-16T01:23:02.002Z,18.50
2017-08-16T01:25:29.567Z,18.50
2017-08-16T01:27:57.098Z,18.50
2017-08-16T01:30:24.619Z,18.50
2017-08-16T01:32:52.153Z,18.50
2017-08-16T01:35:19.676Z,18.60
2017-08-16T01:37:47.222Z,18.60
2017-08-16T01:40:14.748Z,18.60
2017-08-16T01:42:42.271Z,18.70
2017-08-16T01:45:09.808Z,18.70
2017-08-16T01:47:37.336Z,18.70
2017-08-16T01:50:04.869Z,18.60
2017-08-16T01:52:32.391Z,18.70
2017-08-16T01:54:59.939Z,18.60
2017-08-16T01:57:27.466Z,18.60
2017-08-16T01:59:55.003Z,18.60
2017-08-16T02:02:22.534Z,18.50
2017-08-16T02:04:50.078Z,18.50
2017-08-16T02:07:17.601Z,18.50
2017-08-16T02:09:45.148Z,18.40
2017-08-16T02:12:12.670Z,18.40
2017-08-16T02:14:40.198Z,18.40
2017-08-16T02:17:08.508Z,18.40
2017-08-16T02:19:36.022Z,18.40
2017-08-16T02:22:03.562Z,18.40
2017-08-16T02:24:31.088Z,18.40
2017-08-16T02:26:58.629Z,18.40
2017-08-16T02:29:26.226Z,18.40
2017-08-16T02:31:53.771Z,18.30
2017-08-16T02:34:21.301Z,18.40
2017-08-16T02:36:48.867Z,18.30
2017-08-16T02:39:16.407Z,18.30
2017-08-16T02:41:43.935Z,18.30
2017-08-16T02:44:11.482Z,18.30
2017-08-16T02:46:39.009Z,18.30
2017-08-16T02:49:06.546Z,18.30
2017-08-16T02:51:34.070Z,18.20
2017-08-16T02:54:01.620Z,18.20
2017-08-16T02:56:29.151Z,18.30
2017-08-16T02:58:56.698Z,18.30
2017-08-16T03:01:24.236Z,18.30
2017-08-16T03:03:51.775Z,18.20
2017-08-16T03:06:19.295Z,18.20
2017-08-16T03:08:46.838Z,18.20
2017-08-16T03:11:14.357Z,18.20
2017-08-16T03:13:41.892Z,18.20
2017-08-16T03:16:09.432Z,18.10
2017-08-16T03:18:36.956Z,18.10
2017-08-16T03:21:05.297Z,18.10
2017-08-16T03:23:32.819Z,18.10
2017-08-16T03:26:00.362Z,18.10
2017-08-16T03:28:27.895Z,18.00
2017-08-16T03:30:56.213Z,18.00
2017-08-16T03:33:23.735Z,18.00
2017-08-16T03:35:52.050Z,17.90
2017-08-16T03:38:19.571Z,17.90
2017-08-16T03:40:47.887Z,17.90
2017-08-16T03:43:15.414Z,17.90
2017-08-16T03:45:43.739Z,18.00
2017-08-16T03:48:11.260Z,18.00
2017-08-16T03:50:39.546Z,18.00
2017-08-16T03:53:07.095Z,18.00
2017-08-16T03:55:34.631Z,18.10
2017-08-16T03:58:02.184Z,18.10
2017-08-16T04:00:29.710Z,18.10
2017-08-16T04:02:58.027Z,18.00
2017-08-16T04:05:25.538Z,17.90
2017-08-16T04:07:54.419Z,18.00
2017-08-16T04:10:21.946Z,17.90
2017-08-16T04:12:49.490Z,18.00
2017-08-16T04:15:17.015Z,18.00
2017-08-16T04:17:45.331Z,18.10
2017-08-16T04:20:12.851Z,18.10
2017-08-16T04:22:41.156Z,18.10
2017-08-16T04:25:08.675Z,18.10
2017-08-16T04:27:36.234Z,18.10
2017-08-16T04:30:03.755Z,18.00
2017-08-16T04:32:31.283Z,18.00
2017-08-16T04:34:58.827Z,18.00
2017-08-16T04:37:27.115Z,18.00
2017-08-16T04:39:54.650Z,18.00
2017-08-16T04:42:22.170Z,18.00
2017-08-16T04:44:49.719Z,18.00
2017-08-16T04:47:17.249Z,18.00
2017-08-16T04:49:45.559Z,18.00
2017-08-16T04:52:13.080Z,18.00
2017-08-16T04:54:41.390Z,18.00
2017-08-16T04:57:08.916Z,18.00
2017-08-16T04:59:37.226Z,18.00
2017-08-16T05:02:04.747Z,18.00
2017-08-16T05:04:32.303Z,18.00
2017-08-16T05:06:59.818Z,18.00
2017-08-16T05:09:27.339Z,18.00
2017-08-16T05:11:55.642Z,17.90
2017-08-16T05:14:23.169Z,17.90
2017-08-16T05:16:50.704Z,18.00
2017-08-16T05:19:18.222Z,18.10
2017-08-16T05:21:45.769Z,18.20
2017-08-16T05:24:13.292Z,18.30
2017-08-16T05:26:40.830Z,18.30
2017-08-16T05:29:08.346Z,18.50
2017-08-16T05:31:35.888Z,18.60
2017-08-16T05:34:04.174Z,18.80
2017-08-16T05:36:31.714Z,18.80
2017-08-16T05:38:59.235Z,19.10
2017-08-16T05:41:27.545Z,19.30
2017-08-16T05:43:55.079Z,19.40
2017-08-16T05:46:23.366Z,19.40
2017-08-16T05:48:51.667Z,19.30
2017-08-16T05:51:19.186Z,19.20
2017-08-16T05:53:46.727Z,19.10
2017-08-16T05:56:14.245Z,19.00
2017-08-16T05:58:41.794Z,19.20
2017-08-16T06:01:10.078Z,19.50
2017-08-16T06:03:38.390Z,19.40
2017-08-16T06:06:05.911Z,19.30
2017-08-16T06:08:33.453Z,19.10
2017-08-16T06:11:00.967Z,18.90
2017-08-16T06:13:28.512Z,18.80
2017-08-16T06:15:56.034Z,18.80
2017-08-16T06:18:24.323Z,19.90
2017-08-16T06:20:51.874Z,19.80
2017-08-16T06:23:19.394Z,21.10
2017-08-16T06:25:46.935Z,22.60
2017-08-16T06:28:14.452Z,24.10
2017-08-16T06:30:42.757Z,25.90
2017-08-16T06:33:10.278Z,25.90
2017-08-16T06:35:38.578Z,27.10
2017-08-16T06:38:06.098Z,27.10
2017-08-16T06:40:33.634Z,27.50
2017-08-16T06:43:01.150Z,27.70
2017-08-16T06:45:28.687Z,28.10
2017-08-16T06:47:56.212Z,27.90
2017-08-16T06:50:23.759Z,27.30
2017-08-16T06:52:52.043Z,27.00
2017-08-16T06:55:19.560Z,27.00
2017-08-16T06:57:47.103Z,26.80
2017-08-16T07:00:14.618Z,26.50
2017-08-16T07:02:42.159Z,25.80
2017-08-16T07:05:10.443Z,24.00
2017-08-16T07:07:37.981Z,24.00
2017-08-16T07:10:05.503Z,23.40
2017-08-16T07:12:33.807Z,22.50
2017-08-16T07:15:02.091Z,22.70
2017-08-16T07:17:29.627Z,22.60
2017-08-16T07:19:57.147Z,23.90
2017-08-16T07:22:24.683Z,25.00
2017-08-16T07:24:52.967Z,24.90
2017-08-16T07:27:20.510Z,24.80
2017-08-16T07:29:48.794Z,23.90
2017-08-16T07:32:16.334Z,23.90
2017-08-16T07:34:43.855Z,23.60
2017-08-16T07:37:11.371Z,23.60
2017-08-16T07:39:38.910Z,23.60
2017-08-16T07:42:07.204Z,23.50
2017-08-16T07:44:34.742Z,23.50
2017-08-16T07:47:02.254Z,23.50
2017-08-16T07:49:29.795Z,23.50
2017-08-16T07:51:57.314Z,23.10
2017-08-16T07:54:24.854Z,22.90
2017-08-16T07:56:52.379Z,22.70
2017-08-16T07:59:19.919Z,22.50
2017-08-16T08:01:47.429Z,22.40
2017-08-16T08:04:14.974Z,22.40
2017-08-16T08:06:43.262Z,22.50
2017-08-16T08:09:11.569Z,22.50
2017-08-16T08:11:39.114Z,22.50
2017-08-16T08:14:06.629Z,22.30
2017-08-16T08:16:34.173Z,22.20
2017-08-16T08:19:01.689Z,22.10
2017-08-16T08:21:29.222Z,21.90
2017-08-16T08:23:56.738Z,21.80
2017-08-16T08:26:24.274Z,21.80
2017-08-16T08:28:51.795Z,21.40
2017-08-16T08:31:19.326Z,21.40
2017-08-16T08:33:46.847Z,21.50
2017-08-16T08:36:14.389Z,21.60
2017-08-16T08:38:41.901Z,21.70
2017-08-16T08:41:09.416Z,21.80
2017-08-16T08:43:36.952Z,21.90
2017-08-16T08:46:04.480Z,21.90
2017-08-16T08:48:32.021Z,21.90
2017-08-16T08:50:59.552Z,21.90
2017-08-16T08:53:27.090Z,22.00
2017-08-16T08:55:54.617Z,22.10
2017-08-16T08:58:22.151Z,22.20
2017-08-16T09:00:49.669Z,22.30
2017-08-16T09:03:17.207Z,22.40
2017-08-16T09:05:44.721Z,22.60
2017-08-16T09:08:12.283Z,22.70
2017-08-16T09:10:39.808Z,22.70
2017-08-16T09:13:07.322Z,22.90
2017-08-16T09:15:34.868Z,23.20
2017-08-16T09:18:02.384Z,23.30
2017-08-16T09:20:30.687Z,23.80
2017-08-16T09:22:58.205Z,23.80
2017-08-16T09:25:25.743Z,23.80
2017-08-16T09:27:54.030Z,24.10
2017-08-16T09:30:22.406Z,24.00
2017-08-16T09:32:49.930Z,24.30
2017-08-16T09:35:17.462Z,24.60
2017-08-16T09:37:44.983Z,24.60
2017-08-16T09:40:13.287Z,24.50
2017-08-16T09:42:40.808Z,24.50
2017-08-16T09:45:08.322Z,24.30
2017-08-16T09:47:35.870Z,24.60
2017-08-16T09:50:03.386Z,24.80
2017-08-16T09:52:30.927Z,24.80
2017-08-16T09:54:58.443Z,25.10
2017-08-16T09:57:25.978Z,25.80
2017-08-16T09:59:54.259Z,26.50
2017-08-16T10:02:21.797Z,26.50
2017-08-16T10:04:49.313Z,27.00
2017-08-16T10:07:16.850Z,27.40
2017-08-16T10:09:45.163Z,28.10
2017-08-16T10:12:13.437Z,28.20
2017-08-16T10:14:40.979Z,28.10
2017-08-16T10:17:08.498Z,28.40
2017-08-16T10:19:36.035Z,28.60
2017-08-16T10:22:03.552Z,28.00
2017-08-16T10:24:31.868Z,28.30
2017-08-16T10:26:59.395Z,28.30
2017-08-16T10:29:26.930Z,28.60
2017-08-16T10:31:55.115Z,28.60
2017-08-16T10:34:22.658Z,28.80
2017-08-16T10:36:50.189Z,29.40
2017-08-16T10:39:17.751Z,29.80
2017-08-16T10:41:45.262Z,30.20
2017-08-16T10:44:13.547Z,30.90
2017-08-16T10:46:41.087Z,30.90
2017-08-16T10:49:09.397Z,31.20
2017-08-16T10:51:36.938Z,31.10
2017-08-16T10:54:05.231Z,30.80
2017-08-16T10:56:32.765Z,30.90
2017-08-16T10:59:00.294Z,30.70
2017-08-16T11:01:28.598Z,30.00
2017-08-16T11:03:56.115Z,30.00
2017-08-16T11:06:23.655Z,29.70
2017-08-16T11:08:51.186Z,29.20
2017-08-16T11:11:18.741Z,28.90
2017-08-16T11:13:46.270Z,28.30
2017-08-16T11:16:13.800Z,28.30
2017-08-16T11:18:41.339Z,28.30
2017-08-16T11:21:08.854Z,28.60
2017-08-16T11:23:36.395Z,29.00
2017-08-16T11:26:03.914Z,29.40
2017-08-16T11:28:31.453Z,29.40
2017-08-16T11:30:59.735Z,29.30
2017-08-16T11:33:28.035Z,29.30
2017-08-16T11:35:55.554Z,29.20
2017-08-16T11:38:23.088Z,30.10
2017-08-16T11:40:50.598Z,30.60
2017-08-16T11:43:18.910Z,31.20
2017-08-16T11:45:46.430Z,31.10
2017-08-16T11:48:14.710Z,31.60
2017-08-16T11:50:42.250Z,31.60
2017-08-16T11:53:09.774Z,31.60
2017-08-16T11:55:37.309Z,31.40
2017-08-16T11:58:04.827Z,31.30
2017-08-16T12:00:32.372Z,31.60
2017-08-16T12:02:59.902Z,31.50
2017-08-16T12:05:27.434Z,31.10
2017-08-16T12:07:54.957Z,31.20
2017-08-16T12:10:22.493Z,31.10
2017-08-16T12:12:50.011Z,31.10
2017-08-16T12:15:17.571Z,31.10
2017-08-16T12:17:45.085Z,30.90
2017-08-16T12:20:12.625Z,30.70
2017-08-16T12:22:40.161Z,30.10
2017-08-16T12:25:07.684Z,30.00
2017-08-16T12:27:35.989Z,30.00
2017-08-16T12:30:03.506Z,30.00
2017-08-16T12:32:31.041Z,30.10
2017-08-16T12:34:58.557Z,30.10
2017-08-16T12:37:26.094Z,30.00
2017-08-16T12:39:53.611Z,29.90
2017-08-16T12:42:21.152Z,30.30
2017-08-16T12:44:48.676Z,30.60
2017-08-16T12:47:16.224Z,30.60
2017-08-16T12:49:43.743Z,30.50
2017-08-16T12:52:12.027Z,30.80
2017-08-16T12:54:39.562Z,30.80
2017-08-16T12:57:07.075Z,30.70
2017-08-16T12:59:34.615Z,30.60
2017-08-16T13:02:02.135Z,30.60
2017-08-16T13:04:29.670Z,30.50
2017-08-16T13:06:57.199Z,30.60
2017-08-16T13:09:24.735Z,30.50
2017-08-16T13:11:52.265Z,30.10
2017-08-16T13:14:19.797Z,29.70
2017-08-16T13:16:48.078Z,29.30
2017-08-16T13:19:16.382Z,29.00
2017-08-16T13:21:43.902Z,29.00
2017-08-16T13:24:11.434Z,28.60
2017-08-16T13:26:38.966Z,28.60
2017-08-16T13:29:06.481Z,28.80
2017-08-16T13:31:34.791Z,28.80
2017-08-16T13:34:02.322Z,28.70
2017-08-16T13:36:30.626Z,29.60
2017-08-16T13:38:58.142Z,29.50
2017-08-16T13:41:26.447Z,30.20
2017-08-16T13:43:53.962Z,30.20
2017-08-16T13:46:22.261Z,29.60
2017-08-16T13:48:49.783Z,29.60
2017-08-16T13:51:18.109Z,29.80
2017-08-16T13:53:45.626Z,29.70
2017-08-16T13:56:13.930Z,29.40
2017-08-16T13:58:41.452Z,29.40
2017-08-16T14:01:09.004Z,29.00
2017-08-16T14:03:36.518Z,28.70
2017-08-16T14:06:04.807Z,28.30
2017-08-16T14:08:33.121Z,28.50
2017-08-16T14:11:00.648Z,28.50
2017-08-16T14:13:28.182Z,28.70
2017-08-16T14:15:55.698Z,28.80
2017-08-16T14:18:23.230Z,28.60
2017-08-16T14:20:50.745Z,28.20
2017-08-16T14:23:18.282Z,27.90
2017-08-16T14:25:45.804Z,27.60
2017-08-16T14:28:14.106Z,27.60
2017-08-16T14:30:41.629Z,27.60
2017-08-16T14:33:09.936Z,27.50
2017-08-16T14:35:38.218Z,27.50
2017-08-16T14:38:05.755Z,27.50
2017-08-16T14:40:33.270Z,27.90
2017-08-16T14:43:00.785Z,28.20
2017-08-16T14:45:28.326Z,28.30
2017-08-16T14:47:55.843Z,28.20
2017-08-16T14:50:23.390Z,28.10
2017-08-16T14:52:50.918Z,28.00
2017-08-16T14:55:18.463Z,28.00
2017-08-16T14:57:45.977Z,28.00
2017-08-16T15:00:13.518Z,28.00
2017-08-16T15:02:41.797Z,27.80
2017-08-16T15:05:10.098Z,27.90
2017-08-16T15:07:37.618Z,27.80
2017-08-16T15:10:05.157Z,28.10
2017-08-16T15:12:32.674Z,28.20
2017-08-16T15:15:00.190Z,28.10
2017-08-16T15:17:27.735Z,28.00
2017-08-16T15:19:55.254Z,27.90
2017-08-16T15:22:22.814Z,27.80
2017-08-16T15:24:50.330Z,27.90
2017-08-16T15:27:18.640Z,27.70
2017-08-16T15:29:46.162Z,27.70
2017-08-16T15:32:14.466Z,27.50
2017-08-16T15:34:41.996Z,27.50
2017-08-16T15:37:10.309Z,27.20
2017-08-16T15:39:37.827Z,27.20
2017-08-16T15:42:05.366Z,27.10
2017-08-16T15:44:32.886Z,27.00
2017-08-16T15:47:00.403Z,26.90
2017-08-16T15:49:27.945Z,26.80
2017-08-16T15:51:55.460Z,26.80
2017-08-16T15:54:22.999Z,27.00
2017-08-16T15:56:50.515Z,27.10
2017-08-16T15:59:18.823Z,27.10
2017-08-16T16:01:46.340Z,27.10
2017-08-16T16:04:13.879Z,26.90
2017-08-16T16:06:41.389Z,26.60
2017-08-16T16:09:08.927Z,26.40
2017-08-16T16:11:36.448Z,26.10
2017-08-16T16:14:04.013Z,25.90
2017-08-16T16:16:31.534Z,25.70
2017-08-16T16:18:59.049Z,25.60
2017-08-16T16:21:26.586Z,25.50
2017-08-16T16:23:54.114Z,25.30
2017-08-16T16:26:21.654Z,25.20
2017-08-16T16:28:49.178Z,25.20
2017-08-16T16:31:17.166Z,25.10
2017-08-16T16:33:44.677Z,25.00
2017-08-16T16:36:12.210Z,24.90
2017-08-16T16:38:39.734Z,24.80
2017-08-16T16:41:07.277Z,24.60
2017-08-16T16:43:34.807Z,24.60
2017-08-16T16:46:02.337Z,24.50
2017-08-16T16:48:29.865Z,24.50
2017-08-16T16:50:57.388Z,24.40
2017-08-16T16:53:24.922Z,24.30
2017-08-16T16:55:52.442Z,24.30
2017-08-16T16:58:19.982Z,24.30
2017-08-16T17:00:47.498Z,24.30
2017-08-16T17:03:15.035Z,24.20
2017-08-16T17:05:43.318Z,23.90
2017-08-16T17:08:11.617Z,23.80
2017-08-16T17:10:39.129Z,23.80
2017-08-16T17:13:06.667Z,23.60
2017-08-16T17:15:34.318Z,23.60
2017-08-16T17:18:03.151Z,23.60
2017-08-16T17:20:31.318Z,23.50
2017-08-16T17:23:00.833Z,23.40
2017-08-16T17:25:29.588Z,23.20
2017-08-16T17:27:58.135Z,23.10
2017-08-16T17:30:25.765Z,23.10
2017-08-16T17:32:53.304Z,23.00
2017-08-16T17:35:20.843Z,23.00
2017-08-16T17:37:48.366Z,22.90
2017-08-16T17:40:15.907Z,22.90
2017-08-16T17:42:43.425Z,22.70
2017-08-16T17:45:10.963Z,22.50
2017-08-16T17:47:39.250Z,22.50
2017-08-16T17:50:07.587Z,22.50
2017-08-16T17:52:35.127Z,22.40
2017-08-16T17:55:02.641Z,22.40
2017-08-16T17:57:30.957Z,22.30
2017-08-16T17:59:58.478Z,22.30
2017-08-16T18:02:26.014Z,22.30
2017-08-16T18:04:53.535Z,22.20
2017-08-16T18:07:21.391Z,22.00
2017-08-16T18:09:48.904Z,21.90
2017-08-16T18:12:17.210Z,21.70
2017-08-16T18:14:44.728Z,21.70
2017-08-16T18:17:12.270Z,21.70
2017-08-16T18:19:39.791Z,21.60
2017-08-16T18:22:07.330Z,21.60
2017-08-16T18:24:35.614Z,21.50
2017-08-16T18:27:03.926Z,21.40
2017-08-16T18:29:31.449Z,21.40
2017-08-16T18:31:58.994Z,21.30
2017-08-16T18:34:26.515Z,21.20
2017-08-16T18:36:54.031Z,21.00
2017-08-16T18:39:21.570Z,20.80
2017-08-16T18:41:49.854Z,20.60
2017-08-16T18:44:17.385Z,20.60
2017-08-16T18:46:44.902Z,20.60
2017-08-16T18:49:12.438Z,20.60
2017-08-16T18:51:40.723Z,20.50
2017-08-16T18:54:09.025Z,20.50
2017-08-16T18:56:36.551Z,20.50
2017-08-16T18:59:04.086Z,20.30
2017-08-16T19:01:31.660Z,20.30
2017-08-16T19:03:59.191Z,20.20
2017-08-16T19:06:26.701Z,20.20
2017-08-16T19:08:54.264Z,20.20
2017-08-16T19:11:22.546Z,20.10
2017-08-16T19:13:50.063Z,20.10
2017-08-16T19:16:17.599Z,20.00
2017-08-16T19:18:45.127Z,20.00
2017-08-16T19:21:13.426Z,19.80
2017-08-16T19:23:40.943Z,19.80
2017-08-16T19:26:08.528Z,19.80
2017-08-16T19:28:36.059Z,19.80
2017-08-16T19:31:03.597Z,19.80
2017-08-16T19:33:31.120Z,19.70
2017-08-16T19:35:58.655Z,19.60
2017-08-16T19:38:26.185Z,19.60
2017-08-16T19:40:53.736Z,19.50
2017-08-16T19:43:21.264Z,19.50
2017-08-16T19:45:48.814Z,19.50
2017-08-16T19:48:16.337Z,19.40
2017-08-16T19:50:43.890Z,19.40
2017-08-16T19:53:11.407Z,19.30
2017-08-16T19:55:39.928Z,19.20
2017-08-16T19:58:07.475Z,19.20
2017-08-16T20:00:34.994Z,19.10
2017-08-16T20:03:02.529Z,19.10
2017-08-16T20:05:30.052Z,19.10
2017-08-16T20:07:57.745Z,19.00
2017-08-16T20:10:25.346Z,18.90
2017-08-16T20:12:52.882Z,18.80
2017-08-16T20:15:20.404Z,18.80
2017-08-16T20:17:47.944Z,18.80
2017-08-16T20:20:16.226Z,18.80
2017-08-16T20:22:44.535Z,18.70
2017-08-16T20:25:12.059Z,18.70
2017-08-16T20:27:40.342Z,18.70
2017-08-16T20:30:07.887Z,18.60
2017-08-16T20:32:36.171Z,18.60
2017-08-16T20:35:03.707Z,18.60
2017-08-16T20:37:31.229Z,18.60
2017-08-16T20:39:58.761Z,18.60
2017-08-16T20:42:26.274Z,18.60
2017-08-16T20:44:53.806Z,18.60
2017-08-16T20:47:21.337Z,18.60
2017-08-16T20:49:48.882Z,18.60
2017-08-16T20:52:16.403Z,18.50
2017-08-16T20:54:43.941Z,18.50
2017-08-16T20:57:11.479Z,18.50
2017-08-16T20:59:38.998Z,18.40
2017-08-16T21:02:06.538Z,18.40
2017-08-16T21:04:34.051Z,18.40
2017-08-16T21:07:02.367Z,18.30
2017-08-16T21:09:29.887Z,18.30
2017-08-16T21:11:58.186Z,18.30
2017-08-16T21:14:25.702Z,18.30
2017-08-16T21:16:53.242Z,18.20
2017-08-16T21:19:21.521Z,18.30
2017-08-16T21:21:49.059Z,18.30
2017-08-16T21:24:16.591Z,18.30
2017-08-16T21:26:44.130Z,18.30
2017-08-16T21:29:12.423Z,18.30
2017-08-16T21:31:39.962Z,18.20
2017-08-16T21:34:08.247Z,18.10
2017-08-16T21:36:35.798Z,18.10
2017-08-16T21:39:03.315Z,18.10
2017-08-16T21:41:31.603Z,18.00
2017-08-16T21:43:59.909Z,18.00
2017-08-16T21:46:27.426Z,18.00
2017-08-16T21:48:54.966Z,18.00
2017-08-16T21:51:23.247Z,18.00
2017-08-16T21:53:50.787Z,18.00
2017-08-16T21:56:18.311Z,18.00
2017-08-16T21:58:45.847Z,18.00
2017-08-16T22:01:14.138Z,17.90
2017-08-16T22:03:41.675Z,17.80
2017-08-16T22:06:09.195Z,17.90
2017-08-16T22:08:36.735Z,17.80
2017-08-16T22:11:05.018Z,17.80
2017-08-16T22:13:33.324Z,17.80
2017-08-16T22:16:00.898Z,17.80
2017-08-16T22:18:28.420Z,17.80
2017-08-16T22:20:55.955Z,17.80
2017-08-16T22:23:23.476Z,17.80
2017-08-16T22:25:51.019Z,17.80
2017-08-16T22:28:18.547Z,17.70
2017-08-16T22:30:46.850Z,17.70
2017-08-16T22:33:14.366Z,17.70
2017-08-16T22:35:41.910Z,17.70
2017-08-16T22:38:09.426Z,17.70
2017-08-16T22:40:36.967Z,17.70
2017-08-16T22:43:04.483Z,17.60
2017-08-16T22:45:32.027Z,17.60
2017-08-16T22:47:59.543Z,17.60
2017-08-16T22:50:27.083Z,17.60
2017-08-16T22:52:55.370Z,17.50
2017-08-16T22:55:23.658Z,17.40
2017-08-16T22:57:51.203Z,17.40
2017-08-16T23:00:19.496Z,17.40
2017-08-16T23:02:47.043Z,17.30
2017-08-16T23:05:15.363Z,17.20
2017-08-16T23:07:42.905Z,17.20
2017-08-16T23:10:10.427Z,17.20
2017-08-16T23:12:38.736Z,17.20
2017-08-16T23:15:06.267Z,17.20
2017-08-16T23:17:33.811Z,17.20
2017-08-16T23:20:01.338Z,17.20
2017-08-16T23:22:29.795Z,17.10
2017-08-16T23:24:58.096Z,16.90
2017-08-16T23:27:25.635Z,16.90
2017-08-16T23:29:53.163Z,16.90
2017-08-16T23:32:21.444Z,16.80
2017-08-16T23:34:48.984Z,16.80
2017-08-16T23:37:16.503Z,16.80
2017-08-16T23:39:44.047Z,16.80
2017-08-16T23:42:11.574Z,16.70
2017-08-16T23:44:39.119Z,16.70
2017-08-16T23:47:07.402Z,16.70
2017-08-16T23:49:35.707Z,16.60
2017-08-16T23:52:03.226Z,16.60
2017-08-16T23:54:30.767Z,16.70
2017-08-16T23:56:58.287Z,16.70
2017-08-16T23:59:25.831Z,16.60
